TJNR/NRR METAR and TAF weather

Enter ICAO airport designator
Station Type Date Time Source
TJNR METAR 2021/09/28 03:53 UTC NOAA

TJNR 280353Z AUTO 23003KT 10SM FEW034 26/25 A2997 RMK AO2 RAE0259 SLP150 P0000 T02610250 403220244


Station Type Date Time Source
TJNR Decoded METAR 2021/09/28 03:53 UTC NOAA

ROOSEVELT ROADS PUERTO RICO, PR, United States (TJNR) 18-15N 65-38W 10M
Sep 27, 2021 - 11:53 PM EDT / 2021.09.28 0353 UTC
Wind: from the SW (230 degrees) at 3 MPH (3 KT):0
Visibility: 10 mile(s):0
Sky conditions: mostly clear
Precipitation last hour: A trace
Temperature: 79.0 F (26.1 C)
Dew Point: 77.0 F (25.0 C)
Relative Humidity: 93%
Pressure (altimeter): 29.97 in. Hg (1014 hPa)
ob: TJNR 280353Z AUTO 23003KT 10SM FEW034 26/25 A2997 RMK AO2 RAE0259 SLP150 P0000 T02610250 403220244
cycle: 4

Station Type Date Time Source
TJNR TAF UTC NOAA

Error!

Example: see airport list